Time;durP1;ratioP1;P1;durP2;ratioP2;P2;SDS_P1;SDS_P2;PMS_P1;PMS_P2;Temp;Humidity;BMP_temperature;BMP_pressure;BME280_temperature;BME280_humidity;BME280_pressure;Samples;Min_cycle;Max_cycle;Signal;HPM_P1;HPM_P2
2022/01/31 00:00:14;;;;;;;75.07;11.13;;;4.20;99.90;;;;;;4994685;28;20037;-60
2022/01/31 00:02:41;;;;;;;68.30;9.52;;;4.20;99.90;;;;;;5012750;28;20116;-62
2022/01/31 00:05:07;;;;;;;84.53;10.25;;;4.20;99.90;;;;;;5012174;28;20026;-62
2022/01/31 00:07:33;;;;;;;64.35;10.70;;;4.20;99.90;;;;;;5012136;28;20022;-62
2022/01/31 00:09:59;;;;;;;64.03;10.18;;;4.20;99.90;;;;;;5012572;28;20028;-62
2022/01/31 00:12:30;;;;;;;69.32;9.32;;;4.20;99.90;;;;;;5011730;28;20072;-63
2022/01/31 00:15:01;;;;;;;75.13;10.05;;;4.20;99.90;;;;;;5011874;28;20038;-62
2022/01/31 00:17:27;;;;;;;55.30;8.10;;;4.20;99.90;;;;;;5011693;28;20030;-63
2022/01/31 00:19:52;;;;;;;62.25;9.77;;;4.20;99.90;;;;;;5012073;28;20042;-65
2022/01/31 00:22:18;;;;;;;64.57;9.50;;;4.20;99.90;;;;;;4993853;28;20034;-63
2022/01/31 00:24:44;;;;;;;76.13;9.05;;;4.20;99.90;;;;;;5012142;28;20038;-65
2022/01/31 00:27:09;;;;;;;71.43;9.57;;;4.20;99.90;;;;;;5011154;28;20060;-59
2022/01/31 00:29:36;;;;;;;66.95;9.88;;;4.20;99.90;;;;;;5011499;28;20651;-62
2022/01/31 00:32:02;;;;;;;59.63;9.48;;;4.20;99.90;;;;;;5011939;28;20037;-60
2022/01/31 00:34:27;;;;;;;63.60;9.18;;;4.20;99.90;;;;;;5011731;28;20042;-62
2022/01/31 00:36:54;;;;;;;64.70;9.70;;;4.20;99.90;;;;;;5011119;28;20072;-62
2022/01/31 00:39:20;;;;;;;67.82;9.93;;;4.10;99.90;;;;;;5011411;28;20052;-60
2022/01/31 00:41:45;;;;;;;67.07;8.52;;;4.10;99.90;;;;;;5011738;28;20025;-62
2022/01/31 00:44:22;;;;;;;62.53;8.70;;;4.10;99.90;;;;;;5011619;28;20037;-62
2022/01/31 00:46:59;;;;;;;58.42;9.35;;;4.10;99.90;;;;;;4993357;28;20509;-65
2022/01/31 00:49:37;;;;;;;56.15;9.98;;;4.10;99.90;;;;;;5011062;28;20544;-62
2022/01/31 00:52:03;;;;;;;78.63;10.52;;;4.10;99.90;;;;;;5011497;28;20097;-62
2022/01/31 00:54:29;;;;;;;69.20;9.75;;;4.10;99.90;;;;;;5011008;28;20080;-62
2022/01/31 00:56:55;;;;;;;65.20;11.65;;;4.10;99.90;;;;;;5011143;28;20037;-62
2022/01/31 00:59:21;;;;;;;68.43;10.45;;;4.20;99.90;;;;;;5011116;28;20113;-64
2022/01/31 01:01:47;;;;;;;72.00;11.07;;;4.20;99.90;;;;;;5011480;28;20449;-62
2022/01/31 01:04:14;;;;;;;88.88;11.68;;;4.20;99.90;;;;;;5010572;28;20109;-62
2022/01/31 01:06:40;;;;;;;63.30;9.68;;;4.20;99.90;;;;;;5010555;28;20495;-61
2022/01/31 01:09:05;;;;;;;60.67;9.07;;;4.30;99.90;;;;;;5011199;28;20138;-62
2022/01/31 01:11:31;;;;;;;56.58;10.43;;;4.20;99.90;;;;;;5010991;28;20030;-61
2022/01/31 01:13:57;;;;;;;77.63;12.15;;;4.20;99.90;;;;;;5013228;28;20034;-58
2022/01/31 01:16:22;;;;;;;88.05;13.10;;;4.20;99.90;;;;;;5013077;28;20030;-58
2022/01/31 01:18:48;;;;;;;68.55;10.55;;;4.20;99.90;;;;;;5016590;28;20041;-59
2022/01/31 01:21:14;;;;;;;63.38;8.02;;;4.20;99.90;;;;;;5012334;28;20034;-56
2022/01/31 01:23:39;;;;;;;65.22;9.75;;;4.20;99.90;;;;;;5011869;28;20060;-60
2022/01/31 01:26:05;;;;;;;73.05;10.88;;;4.20;99.90;;;;;;5010887;28;20029;-61
2022/01/31 01:28:32;;;;;;;73.20;9.88;;;4.20;99.90;;;;;;5010781;28;20037;-59
2022/01/31 01:30:57;;;;;;;62.42;9.15;;;4.20;99.90;;;;;;5011116;28;20030;-59
2022/01/31 01:33:24;;;;;;;64.45;9.05;;;4.10;99.90;;;;;;4992908;28;20045;-60
2022/01/31 01:35:52;;;;;;;57.30;8.20;;;4.10;99.90;;;;;;5010972;28;20032;-59
2022/01/31 01:38:27;;;;;;;62.90;10.07;;;4.10;99.90;;;;;;5010415;28;20044;-60
2022/01/31 01:40:54;;;;;;;50.88;7.65;;;4.00;99.90;;;;;;5011002;28;20022;-59
2022/01/31 01:43:20;;;;;;;63.42;8.65;;;4.00;99.90;;;;;;5010392;28;20130;-58
2022/01/31 01:45:51;;;;;;;51.00;8.05;;;4.00;99.90;;;;;;5010060;28;20499;-58
2022/01/31 01:48:17;;;;;;;62.03;7.75;;;4.00;99.90;;;;;;5010421;28;20108;-60
2022/01/31 01:50:43;;;;;;;76.28;9.98;;;4.00;99.90;;;;;;5010499;28;20531;-58
2022/01/31 01:53:09;;;;;;;61.13;8.63;;;4.00;99.90;;;;;;5010374;28;20061;-59
2022/01/31 01:55:35;;;;;;;63.53;8.88;;;4.00;99.90;;;;;;5009902;28;20076;-60
2022/01/31 01:58:03;;;;;;;61.05;7.45;;;4.00;99.90;;;;;;5010698;28;20037;-59
2022/01/31 02:00:43;;;;;;;53.30;7.22;;;4.00;99.90;;;;;;5010234;28;20084;-59
2022/01/31 02:03:09;;;;;;;53.72;8.07;;;4.00;99.90;;;;;;5009776;28;20144;-59
2022/01/31 02:05:35;;;;;;;51.33;8.48;;;4.00;99.90;;;;;;5009390;28;20026;-59
2022/01/31 02:08:00;;;;;;;66.85;8.88;;;4.00;99.90;;;;;;5010498;28;20507;-60
2022/01/31 02:10:28;;;;;;;57.08;9.75;;;4.00;99.90;;;;;;5010202;28;20485;-59
2022/01/31 02:12:53;;;;;;;57.65;8.50;;;4.10;99.90;;;;;;5010213;28;20092;-60
2022/01/31 02:15:23;;;;;;;55.78;8.43;;;4.10;99.90;;;;;;5009523;28;20472;-58
2022/01/31 02:17:49;;;;;;;50.83;7.70;;;4.10;99.90;;;;;;5010341;28;20553;-60
2022/01/31 02:20:15;;;;;;;51.08;7.00;;;4.10;99.90;;;;;;5010655;28;20030;-60
2022/01/31 02:22:40;;;;;;;70.43;9.05;;;4.10;99.90;;;;;;5010620;28;20113;-60
2022/01/31 02:25:06;;;;;;;53.55;8.25;;;4.10;99.90;;;;;;5009648;28;20530;-60
2022/01/31 02:27:35;;;;;;;76.53;8.88;;;4.10;99.90;;;;;;5009265;28;20589;-59
2022/01/31 02:30:04;;;;;;;61.03;8.55;;;4.10;99.90;;;;;;5010037;28;20030;-60
2022/01/31 02:32:29;;;;;;;48.97;7.70;;;4.10;99.90;;;;;;5009627;28;20024;-59
2022/01/31 02:34:55;;;;;;;57.80;8.82;;;4.10;99.90;;;;;;5009517;28;20022;-59
2022/01/31 02:37:21;;;;;;;58.40;8.48;;;4.10;99.90;;;;;;5009386;28;20022;-61
2022/01/31 02:39:46;;;;;;;58.20;8.30;;;4.10;99.90;;;;;;5009997;28;20173;-59
2022/01/31 02:42:13;;;;;;;58.33;7.47;;;4.10;99.90;;;;;;5009879;28;20026;-59
2022/01/31 02:44:43;;;;;;;64.25;9.63;;;4.20;99.90;;;;;;5009632;28;20337;-60
2022/01/31 02:47:13;;;;;;;68.13;8.25;;;4.20;99.90;;;;;;5008985;28;20038;-61
2022/01/31 02:49:48;;;;;;;61.70;8.80;;;4.20;99.90;;;;;;5009759;28;20130;-59
2022/01/31 02:52:15;;;;;;;51.33;7.13;;;4.20;99.90;;;;;;5009442;28;20030;-59
2022/01/31 02:54:41;;;;;;;51.10;6.75;;;4.20;99.90;;;;;;5009724;28;20037;-61
2022/01/31 02:57:07;;;;;;;62.13;8.20;;;4.20;99.90;;;;;;5009010;28;20446;-61
2022/01/31 02:59:32;;;;;;;50.25;9.50;;;4.20;99.90;;;;;;5009293;28;20030;-60
2022/01/31 03:01:58;;;;;;;45.17;8.65;;;4.20;99.90;;;;;;5009825;28;20041;-59
2022/01/31 03:04:24;;;;;;;49.83;9.07;;;4.10;99.90;;;;;;5009311;28;20061;-61
2022/01/31 03:06:50;;;;;;;67.00;9.32;;;4.10;99.90;;;;;;5009165;28;20068;-61
2022/01/31 03:09:16;;;;;;;69.30;9.65;;;4.10;99.90;;;;;;5009124;28;20105;-60
2022/01/31 03:11:42;;;;;;;58.50;10.90;;;4.00;99.90;;;;;;5009407;28;20026;-59
2022/01/31 03:14:09;;;;;;;63.72;9.55;;;4.00;99.90;;;;;;5009411;28;20036;-59
2022/01/31 03:16:39;;;;;;;52.70;8.95;;;4.00;99.90;;;;;;5012591;28;20042;-59
2022/01/31 03:19:05;;;;;;;48.17;8.13;;;4.00;99.90;;;;;;4995581;28;20034;-59
2022/01/31 03:21:31;;;;;;;47.72;7.40;;;4.00;99.90;;;;;;5013011;28;20455;-60
2022/01/31 03:23:58;;;;;;;35.03;6.38;;;3.90;99.90;;;;;;5013237;28;20088;-57
2022/01/31 03:26:23;;;;;;;46.67;8.45;;;3.90;99.90;;;;;;5012152;28;20033;-58
2022/01/31 03:28:51;;;;;;;43.67;7.75;;;3.90;99.90;;;;;;5013260;28;20049;-61
2022/01/31 03:31:19;;;;;;;37.40;6.40;;;3.80;99.90;;;;;;5012785;28;20052;-59
2022/01/31 03:33:46;;;;;;;43.35;8.88;;;3.90;99.90;;;;;;5012889;28;20034;-61
2022/01/31 03:36:12;;;;;;;48.33;8.25;;;3.90;99.90;;;;;;5011861;28;20065;-62
2022/01/31 03:38:40;;;;;;;46.60;7.90;;;3.90;99.90;;;;;;5013009;28;20073;-60
2022/01/31 03:41:11;;;;;;;44.13;6.85;;;3.90;99.90;;;;;;5012695;28;20419;-62
2022/01/31 03:43:36;;;;;;;36.55;6.10;;;4.00;99.90;;;;;;4995394;28;20030;-61
2022/01/31 03:46:02;;;;;;;34.20;6.38;;;4.00;99.90;;;;;;5012160;28;20055;-62
2022/01/31 03:48:29;;;;;;;45.83;7.40;;;4.00;99.90;;;;;;5012255;28;20507;-62
2022/01/31 03:50:59;;;;;;;28.27;5.85;;;4.00;99.90;;;;;;5012965;28;20464;-63
2022/01/31 03:53:25;;;;;;;32.35;6.13;;;4.00;99.90;;;;;;5012079;28;20075;-63
2022/01/31 03:55:51;;;;;;;42.30;7.63;;;4.00;99.90;;;;;;5012061;28;20498;-63
2022/01/31 03:58:17;;;;;;;41.05;7.28;;;4.00;99.90;;;;;;5012378;28;20034;-63
2022/01/31 04:00:43;;;;;;;35.28;7.47;;;4.00;99.90;;;;;;5012539;28;20101;-62
2022/01/31 04:03:09;;;;;;;33.10;6.95;;;3.90;99.90;;;;;;5012554;28;20030;-63
2022/01/31 04:05:37;;;;;;;35.08;6.50;;;4.00;99.90;;;;;;5011644;28;20057;-63
2022/01/31 04:08:03;;;;;;;43.70;7.45;;;3.90;99.90;;;;;;4994842;28;20503;-64
2022/01/31 04:10:29;;;;;;;42.75;7.20;;;3.90;99.90;;;;;;5011854;28;20116;-63
2022/01/31 04:12:55;;;;;;;46.63;7.32;;;3.80;99.90;;;;;;5012365;28;20026;-62
2022/01/31 04:15:20;;;;;;;52.58;7.60;;;3.80;99.90;;;;;;5011433;28;20028;-63
2022/01/31 04:17:46;;;;;;;50.42;8.27;;;3.80;99.90;;;;;;5012463;28;20455;-63
2022/01/31 04:20:12;;;;;;;52.90;7.32;;;3.80;99.90;;;;;;5011813;28;20037;-63
2022/01/31 04:22:49;;;;;;;45.22;7.95;;;3.70;99.90;;;;;;5012002;28;20025;-63
2022/01/31 04:25:29;;;;;;;41.25;8.52;;;3.70;99.90;;;;;;5010600;28;20135;-62
2022/01/31 04:28:02;;;;;;;59.47;8.77;;;3.70;99.90;;;;;;5011913;28;20042;-62
2022/01/31 04:30:35;;;;;;;44.92;6.70;;;3.70;99.90;;;;;;5011995;28;20375;-63
2022/01/31 04:33:01;;;;;;;43.95;8.35;;;3.70;99.90;;;;;;5011952;28;20022;-61
2022/01/31 04:35:27;;;;;;;52.40;7.80;;;3.70;99.90;;;;;;5010972;28;20083;-58
2022/01/31 04:37:53;;;;;;;60.72;9.27;;;3.70;99.90;;;;;;5012237;28;20026;-61
2022/01/31 04:40:19;;;;;;;43.75;7.38;;;3.70;99.90;;;;;;5011675;28;20118;-56
2022/01/31 04:42:45;;;;;;;45.67;8.68;;;3.70;99.90;;;;;;5011995;28;20464;-57
2022/01/31 04:45:12;;;;;;;41.55;7.93;;;3.70;99.90;;;;;;5009799;28;20395;-63
2022/01/31 04:47:38;;;;;;;51.17;8.32;;;3.70;99.90;;;;;;5011347;28;20054;-60
2022/01/31 04:50:06;;;;;;;43.45;8.20;;;3.60;99.90;;;;;;5011755;28;20072;-56
2022/01/31 04:52:31;;;;;;;55.88;9.85;;;3.70;99.90;;;;;;5010823;28;20022;-61
2022/01/31 04:54:57;;;;;;;49.42;6.90;;;3.70;99.90;;;;;;5009616;28;20045;-60
2022/01/31 04:57:23;;;;;;;46.70;8.90;;;3.70;99.90;;;;;;5011270;28;20038;-60
2022/01/31 04:59:49;;;;;;;51.17;8.85;;;3.70;99.90;;;;;;5011943;28;20045;-58
2022/01/31 05:02:15;;;;;;;53.08;9.63;;;3.60;99.90;;;;;;5011114;28;20036;-57
2022/01/31 05:04:40;;;;;;;45.33;9.00;;;3.60;99.90;;;;;;4994199;28;20117;-56
2022/01/31 05:07:06;;;;;;;55.45;8.80;;;3.60;99.90;;;;;;5011133;28;20108;-60
2022/01/31 05:09:32;;;;;;;55.75;8.73;;;3.60;99.90;;;;;;4993591;28;20077;-57
2022/01/31 05:11:57;;;;;;;51.17;7.95;;;3.60;99.90;;;;;;5011658;28;20552;-56
2022/01/31 05:14:23;;;;;;;35.55;6.70;;;3.60;99.90;;;;;;5011068;28;20117;-59
2022/01/31 05:16:49;;;;;;;43.65;7.50;;;3.60;99.90;;;;;;5010841;28;20049;-58
2022/01/31 05:19:15;;;;;;;54.83;8.95;;;3.60;99.90;;;;;;4993420;28;20056;-58
2022/01/31 05:21:40;;;;;;;43.08;6.97;;;3.60;99.90;;;;;;5011298;28;20026;-58
2022/01/31 05:24:07;;;;;;;50.00;8.25;;;3.60;99.90;;;;;;5011340;28;20038;-56
2022/01/31 05:26:33;;;;;;;45.83;8.35;;;3.60;99.90;;;;;;5006912;28;20045;-57
2022/01/31 05:28:59;;;;;;;49.45;8.95;;;3.60;99.90;;;;;;5010053;28;20079;-54
2022/01/31 05:31:25;;;;;;;61.90;9.50;;;3.60;99.90;;;;;;5008996;28;20120;-55
2022/01/31 05:33:51;;;;;;;51.75;8.00;;;3.60;99.90;;;;;;4988099;28;20041;-54
2022/01/31 05:36:17;;;;;;;50.58;8.98;;;3.60;99.90;;;;;;4997867;28;20054;-60
2022/01/31 05:38:44;;;;;;;51.75;9.20;;;3.60;99.90;;;;;;5005967;28;20026;-60
2022/01/31 05:41:17;;;;;;;55.60;7.88;;;3.60;99.90;;;;;;5002904;28;20549;-59
2022/01/31 05:43:42;;;;;;;54.70;10.38;;;3.60;99.90;;;;;;5007604;28;20034;-60
2022/01/31 05:46:08;;;;;;;53.00;8.65;;;3.60;99.90;;;;;;5003035;28;20554;-58
2022/01/31 05:48:34;;;;;;;55.22;9.13;;;3.60;99.90;;;;;;5009693;28;20095;-59
2022/01/31 05:51:01;;;;;;;55.33;9.27;;;3.60;99.90;;;;;;5001596;28;20035;-60
2022/01/31 05:53:27;;;;;;;47.75;7.95;;;3.60;99.90;;;;;;4996680;28;20058;-61
2022/01/31 05:55:53;;;;;;;59.47;7.68;;;3.60;99.90;;;;;;4983605;28;20026;-62
2022/01/31 05:58:19;;;;;;;53.40;8.88;;;3.50;99.90;;;;;;5011936;28;20044;-60
2022/01/31 06:00:44;;;;;;;54.45;8.85;;;3.50;99.90;;;;;;5010520;28;20034;-61
2022/01/31 06:03:10;;;;;;;47.85;8.90;;;3.40;99.90;;;;;;5013540;28;20565;-62
2022/01/31 06:05:36;;;;;;;52.03;9.30;;;3.40;99.90;;;;;;5007291;28;20088;-61
2022/01/31 06:08:02;;;;;;;64.43;10.25;;;3.30;99.90;;;;;;5005672;28;20037;-61
2022/01/31 06:10:27;;;;;;;56.85;9.02;;;3.30;99.90;;;;;;5005769;28;20225;-57
2022/01/31 06:12:55;;;;;;;75.03;11.18;;;3.10;99.90;;;;;;5007833;28;20092;-56
2022/01/31 06:15:20;;;;;;;45.45;9.60;;;3.20;99.90;;;;;;5006913;28;20407;-55
2022/01/31 06:17:46;;;;;;;55.15;9.68;;;3.10;99.90;;;;;;5005320;28;20035;-60
2022/01/31 06:20:12;;;;;;;55.15;9.85;;;3.10;99.90;;;;;;5004673;28;20476;-57
2022/01/31 06:22:50;;;;;;;47.72;8.27;;;3.20;99.90;;;;;;5009228;28;20034;-58
2022/01/31 06:25:17;;;;;;;62.15;9.68;;;3.10;99.90;;;;;;4992673;28;20022;-60
2022/01/31 06:27:43;;;;;;;52.03;10.00;;;3.00;99.90;;;;;;5009066;28;20503;-57
2022/01/31 06:30:09;;;;;;;57.40;9.88;;;2.90;99.90;;;;;;5009712;28;20038;-59
2022/01/31 06:32:36;;;;;;;61.45;10.85;;;2.90;99.90;;;;;;5008893;28;20476;-57
2022/01/31 06:35:03;;;;;;;54.72;10.00;;;3.00;99.90;;;;;;5001380;28;20022;-60
2022/01/31 06:37:29;;;;;;;57.78;10.32;;;3.00;99.90;;;;;;5008551;28;20041;-62
2022/01/31 06:39:55;;;;;;;58.58;9.82;;;2.90;99.90;;;;;;5008943;28;20030;-60
2022/01/31 06:42:20;;;;;;;58.25;10.63;;;2.90;99.90;;;;;;5005809;28;20112;-60
2022/01/31 06:44:46;;;;;;;57.88;10.57;;;2.80;99.90;;;;;;5009778;28;20534;-59
2022/01/31 06:47:12;;;;;;;64.15;11.20;;;2.90;99.90;;;;;;5002316;28;20125;-58
2022/01/31 06:49:37;;;;;;;55.25;10.50;;;2.90;99.90;;;;;;5007421;28;20057;-60
2022/01/31 06:52:04;;;;;;;50.60;9.30;;;2.90;99.90;;;;;;5008778;28;20407;-61
2022/01/31 06:54:33;;;;;;;61.65;11.02;;;2.90;99.90;;;;;;5007075;28;20505;-59
2022/01/31 06:57:00;;;;;;;68.03;10.30;;;2.90;99.90;;;;;;5007602;28;20045;-61
2022/01/31 06:59:26;;;;;;;58.65;12.07;;;2.90;99.90;;;;;;5013244;28;20022;-59
2022/01/31 07:01:52;;;;;;;54.13;10.32;;;2.90;99.90;;;;;;5006501;28;20087;-61
2022/01/31 07:04:17;;;;;;;54.58;11.40;;;2.90;99.90;;;;;;5011405;28;20469;-58
2022/01/31 07:06:43;;;;;;;63.25;10.98;;;2.90;99.90;;;;;;5009503;28;20034;-59
2022/01/31 07:09:08;;;;;;;59.78;10.80;;;2.90;99.90;;;;;;5009728;28;20165;-60
2022/01/31 07:11:39;;;;;;;63.80;12.05;;;3.00;99.90;;;;;;4992021;28;20345;-57
2022/01/31 07:14:08;;;;;;;58.00;10.30;;;2.90;99.90;;;;;;5008416;28;20056;-57
2022/01/31 07:16:34;;;;;;;57.45;10.55;;;2.90;99.90;;;;;;5006763;28;20042;-59
2022/01/31 07:19:06;;;;;;;57.35;10.35;;;2.90;99.90;;;;;;5012429;28;20029;-59
2022/01/31 07:21:50;;;;;;;74.45;11.77;;;2.80;99.90;;;;;;5006937;28;20093;-61
2022/01/31 07:24:44;;;;;;;64.30;12.52;;;2.80;99.90;;;;;;5003180;28;20109;-59
2022/01/31 07:27:10;;;;;;;57.72;10.60;;;2.80;99.90;;;;;;5000045;28;20455;-57
2022/01/31 07:29:36;;;;;;;60.28;10.80;;;2.80;99.90;;;;;;5009676;28;20488;-56
2022/01/31 07:32:02;;;;;;;54.80;10.30;;;2.80;99.90;;;;;;5008700;28;20077;-59
2022/01/31 07:34:28;;;;;;;56.38;10.80;;;2.80;99.90;;;;;;5008868;28;20099;-58
2022/01/31 07:36:54;;;;;;;64.82;11.50;;;2.80;99.90;;;;;;5008007;28;20038;-58
2022/01/31 07:39:20;;;;;;;77.15;11.52;;;2.80;99.90;;;;;;5009119;28;20113;-57
2022/01/31 07:41:48;;;;;;;54.38;8.88;;;2.70;99.90;;;;;;5008692;28;20037;-59
2022/01/31 07:44:14;;;;;;;61.08;10.57;;;2.70;99.90;;;;;;5007438;28;20037;-58
2022/01/31 07:46:40;;;;;;;65.95;11.02;;;2.80;99.90;;;;;;5007500;28;20045;-63
2022/01/31 07:49:07;;;;;;;57.03;10.88;;;2.80;99.90;;;;;;5001889;28;20026;-62
2022/01/31 07:51:36;;;;;;;80.90;12.95;;;2.70;99.90;;;;;;5008255;28;20034;-61
2022/01/31 07:54:01;;;;;;;46.85;10.02;;;2.70;99.90;;;;;;4996429;28;20093;-63
2022/01/31 07:56:27;;;;;;;57.38;11.10;;;2.60;99.90;;;;;;4991067;28;20138;-63
2022/01/31 07:58:53;;;;;;;49.92;10.57;;;2.80;99.90;;;;;;5008396;28;20084;-49
2022/01/31 08:01:19;;;;;;;42.00;9.90;;;2.80;99.90;;;;;;5007840;28;20030;-50
2022/01/31 08:03:47;;;;;;;48.70;10.43;;;2.80;99.90;;;;;;5009267;28;20459;-51
2022/01/31 08:06:14;;;;;;;52.22;10.48;;;2.70;99.90;;;;;;4991250;28;20034;-52
2022/01/31 08:08:41;;;;;;;50.33;10.13;;;2.70;99.90;;;;;;4994204;28;20514;-53
2022/01/31 08:11:07;;;;;;;54.17;10.43;;;2.70;99.90;;;;;;5009128;28;20510;-50
2022/01/31 08:13:34;;;;;;;64.55;10.90;;;2.70;99.90;;;;;;5011660;28;20467;-53
2022/01/31 08:16:09;;;;;;;47.97;11.10;;;2.70;99.90;;;;;;5007670;28;20065;-50
2022/01/31 08:18:43;;;;;;;44.85;10.52;;;2.70;99.90;;;;;;5008560;28;20419;-55
2022/01/31 08:21:11;;;;;;;51.90;10.43;;;2.70;99.90;;;;;;5009724;28;20037;-52
2022/01/31 08:23:37;;;;;;;44.30;8.88;;;2.80;99.90;;;;;;4993906;28;20125;-50
2022/01/31 08:26:05;;;;;;;42.70;9.65;;;2.70;99.90;;;;;;5010102;28;20029;-55
2022/01/31 08:28:44;;;;;;;37.35;8.88;;;2.80;99.90;;;;;;5013825;28;20483;-51
2022/01/31 08:31:24;;;;;;;42.10;10.85;;;2.80;99.90;;;;;;5012521;28;20500;-50
2022/01/31 08:34:04;;;;;;;41.60;9.98;;;2.90;99.90;;;;;;5010561;28;20033;-52
2022/01/31 08:36:34;;;;;;;44.75;9.80;;;2.80;99.90;;;;;;4995406;28;20507;-53
2022/01/31 08:39:01;;;;;;;43.13;11.18;;;2.80;99.90;;;;;;4991977;28;20073;-50
2022/01/31 08:41:27;;;;;;;32.80;9.05;;;2.90;99.90;;;;;;5002937;28;20462;-50
2022/01/31 08:43:53;;;;;;;44.92;9.20;;;2.90;99.90;;;;;;5010644;28;20546;-52
2022/01/31 08:46:19;;;;;;;39.05;9.98;;;3.00;99.90;;;;;;5009957;28;20076;-51
2022/01/31 08:48:45;;;;;;;44.58;10.50;;;2.90;99.90;;;;;;5011536;28;20034;-50
2022/01/31 08:51:12;;;;;;;39.80;9.43;;;2.90;99.90;;;;;;5010324;28;20030;-51
2022/01/31 08:53:39;;;;;;;53.10;11.38;;;2.90;99.90;;;;;;5011167;28;20049;-52
2022/01/31 08:56:08;;;;;;;42.15;10.85;;;3.00;99.90;;;;;;5009659;28;20084;-51
2022/01/31 08:58:36;;;;;;;45.22;9.88;;;3.00;99.90;;;;;;5011313;28;20030;-51
2022/01/31 09:01:04;;;;;;;45.65;8.60;;;3.00;99.90;;;;;;5009271;28;20076;-48
2022/01/31 09:06:01;;;;;;;50.17;11.88;;;2.90;99.90;;;;;;5008246;28;20534;-51
2022/01/31 09:08:26;;;;;;;35.97;11.10;;;3.00;99.90;;;;;;5010367;28;20444;-51
2022/01/31 09:10:52;;;;;;;42.50;11.90;;;3.00;99.90;;;;;;4977675;28;20434;-51
2022/01/31 09:13:18;;;;;;;50.28;12.10;;;3.00;99.90;;;;;;5009889;28;20045;-53
2022/01/31 09:15:44;;;;;;;47.80;12.43;;;3.00;99.90;;;;;;5010949;28;20539;-47
2022/01/31 09:18:09;;;;;;;44.05;12.38;;;3.10;99.90;;;;;;5010118;28;20033;-56
2022/01/31 09:20:36;;;;;;;32.65;10.75;;;3.10;99.90;;;;;;5011120;28;20029;-47
2022/01/31 09:23:02;;;;;;;34.67;10.85;;;3.10;99.90;;;;;;5009270;28;20030;-47
2022/01/31 09:25:29;;;;;;;41.15;11.07;;;3.10;99.90;;;;;;5008531;28;20071;-55
2022/01/31 09:27:54;;;;;;;42.22;11.32;;;3.10;99.90;;;;;;4993112;28;20025;-49
2022/01/31 09:30:22;;;;;;;44.10;11.20;;;3.10;99.90;;;;;;5006334;28;20096;-50
2022/01/31 09:32:48;;;;;;;34.20;10.50;;;3.10;99.90;;;;;;4992410;28;20037;-54
2022/01/31 09:35:14;;;;;;;37.88;11.75;;;3.10;99.90;;;;;;5009384;28;20034;-50
2022/01/31 09:37:40;;;;;;;42.40;11.30;;;3.10;99.90;;;;;;5010795;28;20057;-47
2022/01/31 09:40:06;;;;;;;40.92;11.20;;;3.10;99.90;;;;;;5009302;28;20072;-48
2022/01/31 09:42:52;;;;;;;43.50;12.18;;;3.10;99.90;;;;;;4992664;28;20026;-51
2022/01/31 09:45:34;;;;;;;45.35;11.85;;;3.10;99.90;;;;;;5003864;28;20064;-48
2022/01/31 09:50:29;;;;;;;31.42;10.95;;;3.10;99.90;;;;;;5010070;28;19931;-49
2022/01/31 09:52:56;;;;;;;48.60;12.23;;;3.10;99.90;;;;;;5009885;28;20352;-47
2022/01/31 09:55:25;;;;;;;30.50;9.32;;;3.20;99.90;;;;;;5004214;28;20053;-48
2022/01/31 09:57:50;;;;;;;34.38;10.27;;;3.10;99.90;;;;;;5010513;28;20101;-55
2022/01/31 10:00:16;;;;;;;27.83;9.35;;;3.20;99.90;;;;;;5007093;28;20113;-48
2022/01/31 10:03:09;;;;;;;28.45;9.57;;;3.20;99.90;;;;;;5009462;28;20439;-49
2022/01/31 10:05:35;;;;;;;;;;;3.30;99.90;;;;;;5006845;28;20042;-52
2022/01/31 10:08:16;;;;;;;32.47;10.60;;;3.30;99.90;;;;;;5009560;28;19910;-49
2022/01/31 10:10:45;;;;;;;36.63;10.52;;;3.30;99.90;;;;;;4992089;28;20029;-49
2022/01/31 10:16:28;;;;;;;33.05;10.70;;;3.40;99.90;;;;;;5008524;28;20033;-49
2022/01/31 10:19:09;;;;;;;33.35;10.50;;;3.40;99.90;;;;;;5009130;28;20025;-50
2022/01/31 10:22:03;;;;;;;29.00;8.95;;;3.40;99.90;;;;;;5009794;28;20049;-53
2022/01/31 10:24:31;;;;;;;33.38;8.32;;;3.40;99.90;;;;;;5008355;28;20037;-48
2022/01/31 10:27:05;;;;;;;27.13;9.20;;;3.50;99.90;;;;;;5009753;28;20379;-54
2022/01/31 10:29:30;;;;;;;21.73;8.18;;;3.50;99.90;;;;;;5009849;28;20037;-53
2022/01/31 10:32:04;;;;;;;26.60;8.38;;;3.40;99.90;;;;;;4992298;28;20036;-51
2022/01/31 10:34:36;;;;;;;23.67;8.27;;;3.50;99.90;;;;;;5008552;28;20038;-54
2022/01/31 10:37:09;;;;;;;20.83;8.55;;;3.50;99.90;;;;;;4989751;28;20134;-48
2022/01/31 10:54:10;;;;;;;23.17;8.75;;;3.50;99.90;;;;;;5009811;28;20037;-53
2022/01/31 10:56:37;;;;;;;24.00;8.00;;;3.50;99.90;;;;;;5007954;28;20467;-52
2022/01/31 10:59:06;;;;;;;20.10;7.78;;;3.50;99.90;;;;;;4990595;28;20101;-49
2022/01/31 11:01:32;;;;;;;29.75;8.50;;;3.60;99.90;;;;;;4997970;28;20038;-50
2022/01/31 11:04:03;;;;;;;28.63;9.27;;;3.60;99.90;;;;;;5009752;28;20045;-51
2022/01/31 11:06:30;;;;;;;25.85;10.90;;;3.60;99.90;;;;;;5000822;28;20046;-47
2022/01/31 11:09:08;;;;;;;27.67;11.23;;;3.70;99.90;;;;;;5008581;28;20038;-50
2022/01/31 11:11:35;;;;;;;25.63;11.00;;;3.70;99.90;;;;;;5008160;28;20034;-52
2022/01/31 11:14:03;;;;;;;36.95;12.18;;;3.80;99.90;;;;;;5009452;28;20144;-51
2022/01/31 11:16:30;;;;;;;30.85;12.52;;;3.90;99.90;;;;;;4999730;28;20044;-50
2022/01/31 11:18:58;;;;;;;33.92;11.80;;;4.00;99.90;;;;;;5007218;28;20041;-52
2022/01/31 11:21:28;;;;;;;26.35;13.02;;;4.00;99.90;;;;;;5008627;28;20088;-52
2022/01/31 11:24:01;;;;;;;29.75;13.10;;;4.00;99.90;;;;;;5008374;28;20108;-52
2022/01/31 11:26:38;;;;;;;31.77;13.40;;;4.10;99.90;;;;;;5008265;28;20552;-51
2022/01/31 11:29:06;;;;;;;22.85;11.43;;;4.10;99.90;;;;;;5008158;28;20030;-53
2022/01/31 11:31:35;;;;;;;28.95;13.25;;;4.10;99.90;;;;;;4998606;28;20066;-50
2022/01/31 11:34:01;;;;;;;31.52;11.93;;;4.10;99.90;;;;;;5008610;28;20130;-53
2022/01/31 11:36:27;;;;;;;30.25;11.02;;;4.20;99.90;;;;;;5010014;28;20102;-54
2022/01/31 11:38:52;;;;;;;28.33;11.45;;;4.20;99.90;;;;;;4995238;28;20190;-54
2022/01/31 11:41:19;;;;;;;26.27;9.82;;;4.30;99.90;;;;;;5012170;28;20041;-57
2022/01/31 11:43:55;;;;;;;19.70;8.82;;;4.30;99.90;;;;;;5009945;28;20031;-56
2022/01/31 11:46:25;;;;;;;27.20;9.35;;;4.40;99.90;;;;;;5010109;28;20026;-56
2022/01/31 11:48:54;;;;;;;21.42;8.02;;;4.40;99.90;;;;;;4998210;28;20053;-53
2022/01/31 11:51:21;;;;;;;22.10;8.80;;;4.50;99.90;;;;;;5007081;28;20034;-56
2022/01/31 11:53:47;;;;;;;18.70;8.13;;;4.50;99.90;;;;;;5009543;28;20392;-53
2022/01/31 11:56:22;;;;;;;21.42;8.15;;;4.50;99.90;;;;;;5000001;28;20530;-53
2022/01/31 11:58:53;;;;;;;27.63;8.93;;;4.60;99.90;;;;;;5011175;28;20068;-50
2022/01/31 12:01:20;;;;;;;23.98;9.15;;;4.70;99.90;;;;;;5011692;28;20056;-49
2022/01/31 12:03:52;;;;;;;22.50;8.88;;;4.70;99.90;;;;;;5013021;28;20057;-52
2022/01/31 12:06:23;;;;;;;29.42;9.63;;;4.70;99.90;;;;;;5010930;28;20034;-49
2022/01/31 12:08:50;;;;;;;24.88;10.35;;;4.80;99.90;;;;;;5002874;28;20034;-46
2022/01/31 12:11:23;;;;;;;21.08;8.73;;;4.80;99.90;;;;;;5011068;28;20030;-49
2022/01/31 12:13:53;;;;;;;23.95;8.73;;;4.80;99.90;;;;;;5004589;28;20058;-47
2022/01/31 12:16:50;;;;;;;22.35;7.60;;;4.70;99.90;;;;;;4992972;28;20022;-46
2022/01/31 12:19:33;;;;;;;28.52;8.35;;;4.70;99.90;;;;;;4999612;28;20077;-46
2022/01/31 12:22:03;;;;;;;23.95;9.38;;;4.70;99.90;;;;;;5010986;28;20487;-47
2022/01/31 12:24:47;;;;;;;30.02;10.45;;;4.70;99.90;;;;;;5011746;28;20766;-47
2022/01/31 12:27:42;;;;;;;22.80;10.40;;;4.80;99.90;;;;;;5009925;28;20112;-49
2022/01/31 12:30:08;;;;;;;24.73;8.82;;;4.80;99.90;;;;;;4977247;28;20050;-51
2022/01/31 12:32:35;;;;;;;21.85;8.30;;;4.70;99.90;;;;;;5011044;28;20087;-49
2022/01/31 12:35:03;;;;;;;21.92;9.38;;;4.70;99.90;;;;;;5010581;28;20038;-48
2022/01/31 12:37:37;;;;;;;23.20;9.00;;;4.70;99.90;;;;;;5011514;28;20034;-48
2022/01/31 12:40:09;;;;;;;19.45;7.22;;;4.70;99.90;;;;;;4993245;28;20093;-52
2022/01/31 12:45:23;;;;;;;19.10;7.65;;;4.60;99.90;;;;;;4994198;28;20079;-51
2022/01/31 12:48:08;;;;;;;16.27;6.68;;;4.60;99.90;;;;;;5011285;28;20042;-50
2022/01/31 12:50:36;;;;;;;20.17;8.15;;;4.60;99.90;;;;;;5010918;28;20032;-48
2022/01/31 12:53:05;;;;;;;17.98;7.68;;;4.70;99.90;;;;;;5002145;28;20076;-48
2022/01/31 12:55:33;;;;;;;16.45;7.03;;;4.80;99.90;;;;;;5004464;28;20038;-49
2022/01/31 12:57:59;;;;;;;19.55;8.55;;;4.80;99.90;;;;;;5011302;28;20037;-50
2022/01/31 13:00:43;;;;;;;20.65;7.60;;;4.80;99.90;;;;;;5011391;28;20038;-54
2022/01/31 13:03:09;;;;;;;16.98;7.70;;;4.70;99.90;;;;;;5016621;28;20258;-51
2022/01/31 13:05:37;;;;;;;24.95;8.70;;;4.80;99.90;;;;;;5010976;28;20037;-46
2022/01/31 13:08:22;;;;;;;22.10;8.68;;;4.80;99.90;;;;;;5008608;28;20087;-46
2022/01/31 13:10:48;;;;;;;17.77;8.50;;;4.80;99.90;;;;;;5005223;28;20088;-48
2022/01/31 13:13:15;;;;;;;24.08;8.55;;;4.80;99.90;;;;;;5006321;28;20034;-47